sensor_id;sensor_type;location;lat;lon;timestamp;P1;durP1;ratioP1;P2;durP2;ratioP2
20140;SDS011;10231;47.702;9.826;2023-04-24T00:00:40;1.13;;;0.30;;
20140;SDS011;10231;47.702;9.826;2023-04-24T00:03:05;0.40;;;0.40;;
20140;SDS011;10231;47.702;9.826;2023-04-24T00:05:32;2.07;;;0.80;;
20140;SDS011;10231;47.702;9.826;2023-04-24T00:07:57;0.20;;;0.20;;
20140;SDS011;10231;47.702;9.826;2023-04-24T00:10:23;0.50;;;0.20;;
20140;SDS011;10231;47.702;9.826;2023-04-24T00:12:49;0.53;;;0.53;;
20140;SDS011;10231;47.702;9.826;2023-04-24T00:15:15;0.40;;;0.40;;
20140;SDS011;10231;47.702;9.826;2023-04-24T00:17:40;0.53;;;0.40;;
20140;SDS011;10231;47.702;9.826;2023-04-24T00:20:06;0.40;;;0.40;;
20140;SDS011;10231;47.702;9.826;2023-04-24T00:22:32;0.30;;;0.30;;
20140;SDS011;10231;47.702;9.826;2023-04-24T00:24:58;0.50;;;0.40;;
20140;SDS011;10231;47.702;9.826;2023-04-24T00:27:23;0.67;;;0.50;;
20140;SDS011;10231;47.702;9.826;2023-04-24T00:29:49;0.83;;;0.40;;
20140;SDS011;10231;47.702;9.826;2023-04-24T00:32:15;0.40;;;0.40;;
20140;SDS011;10231;47.702;9.826;2023-04-24T00:34:41;0.40;;;0.40;;
20140;SDS011;10231;47.702;9.826;2023-04-24T00:37:06;0.43;;;0.30;;
20140;SDS011;10231;47.702;9.826;2023-04-24T00:39:32;0.57;;;0.40;;
20140;SDS011;10231;47.702;9.826;2023-04-24T00:41:58;1.80;;;0.40;;
20140;SDS011;10231;47.702;9.826;2023-04-24T00:44:24;1.50;;;0.50;;
20140;SDS011;10231;47.702;9.826;2023-04-24T00:46:49;0.60;;;0.60;;
20140;SDS011;10231;47.702;9.826;2023-04-24T00:49:19;0.53;;;0.50;;
20140;SDS011;10231;47.702;9.826;2023-04-24T00:51:48;0.93;;;0.50;;
20140;SDS011;10231;47.702;9.826;2023-04-24T00:54:16;0.50;;;0.50;;
20140;SDS011;10231;47.702;9.826;2023-04-24T00:56:42;0.40;;;0.40;;
20140;SDS011;10231;47.702;9.826;2023-04-24T00:59:09;0.50;;;0.50;;
20140;SDS011;10231;47.702;9.826;2023-04-24T01:01:36;0.77;;;0.60;;
20140;SDS011;10231;47.702;9.826;2023-04-24T01:04:01;0.83;;;0.50;;
20140;SDS011;10231;47.702;9.826;2023-04-24T01:06:28;0.60;;;0.53;;
20140;SDS011;10231;47.702;9.826;2023-04-24T01:08:56;0.40;;;0.40;;
20140;SDS011;10231;47.702;9.826;2023-04-24T01:11:23;0.30;;;0.30;;
20140;SDS011;10231;47.702;9.826;2023-04-24T01:13:49;1.87;;;0.40;;
20140;SDS011;10231;47.702;9.826;2023-04-24T01:16:15;1.83;;;0.50;;
20140;SDS011;10231;47.702;9.826;2023-04-24T01:18:42;1.17;;;0.60;;
20140;SDS011;10231;47.702;9.826;2023-04-24T01:21:08;0.43;;;0.43;;
20140;SDS011;10231;47.702;9.826;2023-04-24T01:23:36;0.93;;;0.50;;
20140;SDS011;10231;47.702;9.826;2023-04-24T01:26:02;0.60;;;0.40;;
20140;SDS011;10231;47.702;9.826;2023-04-24T01:28:27;0.40;;;0.40;;
20140;SDS011;10231;47.702;9.826;2023-04-24T01:30:53;0.50;;;0.50;;
20140;SDS011;10231;47.702;9.826;2023-04-24T01:33:20;0.40;;;0.40;;
20140;SDS011;10231;47.702;9.826;2023-04-24T01:35:46;0.63;;;0.30;;
20140;SDS011;10231;47.702;9.826;2023-04-24T01:38:13;0.67;;;0.50;;
20140;SDS011;10231;47.702;9.826;2023-04-24T01:40:38;0.30;;;0.30;;
20140;SDS011;10231;47.702;9.826;2023-04-24T01:43:04;0.40;;;0.40;;
20140;SDS011;10231;47.702;9.826;2023-04-24T01:45:30;0.43;;;0.43;;
20140;SDS011;10231;47.702;9.826;2023-04-24T01:47:55;0.30;;;0.30;;
20140;SDS011;10231;47.702;9.826;2023-04-24T01:50:21;0.30;;;0.30;;
20140;SDS011;10231;47.702;9.826;2023-04-24T01:52:47;0.30;;;0.30;;
20140;SDS011;10231;47.702;9.826;2023-04-24T01:55:12;1.07;;;0.30;;
20140;SDS011;10231;47.702;9.826;2023-04-24T01:57:38;0.30;;;0.30;;
20140;SDS011;10231;47.702;9.826;2023-04-24T02:00:04;0.60;;;0.40;;
20140;SDS011;10231;47.702;9.826;2023-04-24T02:02:31;0.30;;;0.30;;
20140;SDS011;10231;47.702;9.826;2023-04-24T02:04:57;0.40;;;0.40;;
20140;SDS011;10231;47.702;9.826;2023-04-24T02:07:23;0.80;;;0.43;;
20140;SDS011;10231;47.702;9.826;2023-04-24T02:09:48;0.30;;;0.30;;
20140;SDS011;10231;47.702;9.826;2023-04-24T02:12:14;0.47;;;0.47;;
20140;SDS011;10231;47.702;9.826;2023-04-24T02:14:40;0.40;;;0.40;;
20140;SDS011;10231;47.702;9.826;2023-04-24T02:17:07;0.70;;;0.30;;
20140;SDS011;10231;47.702;9.826;2023-04-24T02:19:32;0.60;;;0.43;;
20140;SDS011;10231;47.702;9.826;2023-04-24T02:21:58;0.53;;;0.43;;
20140;SDS011;10231;47.702;9.826;2023-04-24T02:24:23;0.40;;;0.40;;
20140;SDS011;10231;47.702;9.826;2023-04-24T02:26:49;0.30;;;0.30;;
20140;SDS011;10231;47.702;9.826;2023-04-24T02:29:15;0.33;;;0.33;;
20140;SDS011;10231;47.702;9.826;2023-04-24T02:31:40;0.30;;;0.30;;
20140;SDS011;10231;47.702;9.826;2023-04-24T02:34:06;0.30;;;0.30;;
20140;SDS011;10231;47.702;9.826;2023-04-24T02:36:31;0.40;;;0.40;;
20140;SDS011;10231;47.702;9.826;2023-04-24T02:38:57;0.40;;;0.27;;
20140;SDS011;10231;47.702;9.826;2023-04-24T02:41:23;0.30;;;0.30;;
20140;SDS011;10231;47.702;9.826;2023-04-24T02:43:48;0.30;;;0.30;;
20140;SDS011;10231;47.702;9.826;2023-04-24T02:46:14;0.80;;;0.30;;
20140;SDS011;10231;47.702;9.826;2023-04-24T02:48:40;0.37;;;0.37;;
20140;SDS011;10231;47.702;9.826;2023-04-24T02:51:05;0.93;;;0.47;;
20140;SDS011;10231;47.702;9.826;2023-04-24T02:53:31;0.30;;;0.30;;
20140;SDS011;10231;47.702;9.826;2023-04-24T02:55:57;0.73;;;0.40;;
20140;SDS011;10231;47.702;9.826;2023-04-24T02:58:23;0.40;;;0.40;;
20140;SDS011;10231;47.702;9.826;2023-04-24T03:00:52;0.20;;;0.20;;
20140;SDS011;10231;47.702;9.826;2023-04-24T03:03:19;0.30;;;0.30;;
20140;SDS011;10231;47.702;9.826;2023-04-24T03:05:45;0.47;;;0.30;;
20140;SDS011;10231;47.702;9.826;2023-04-24T03:08:10;0.30;;;0.30;;
20140;SDS011;10231;47.702;9.826;2023-04-24T03:10:36;0.30;;;0.30;;
20140;SDS011;10231;47.702;9.826;2023-04-24T03:13:02;0.30;;;0.30;;
20140;SDS011;10231;47.702;9.826;2023-04-24T03:15:27;0.87;;;0.40;;
20140;SDS011;10231;47.702;9.826;2023-04-24T03:17:53;0.20;;;0.20;;
20140;SDS011;10231;47.702;9.826;2023-04-24T03:20:18;0.40;;;0.40;;
20140;SDS011;10231;47.702;9.826;2023-04-24T03:22:44;0.40;;;0.40;;
20140;SDS011;10231;47.702;9.826;2023-04-24T03:25:09;0.30;;;0.30;;
20140;SDS011;10231;47.702;9.826;2023-04-24T03:27:35;0.63;;;0.50;;
20140;SDS011;10231;47.702;9.826;2023-04-24T03:30:01;0.37;;;0.30;;
20140;SDS011;10231;47.702;9.826;2023-04-24T03:32:27;0.33;;;0.33;;
20140;SDS011;10231;47.702;9.826;2023-04-24T03:34:52;0.80;;;0.30;;
20140;SDS011;10231;47.702;9.826;2023-04-24T03:37:18;0.30;;;0.30;;
20140;SDS011;10231;47.702;9.826;2023-04-24T03:39:44;0.40;;;0.40;;
20140;SDS011;10231;47.702;9.826;2023-04-24T03:42:09;0.40;;;0.40;;
20140;SDS011;10231;47.702;9.826;2023-04-24T03:44:35;0.30;;;0.23;;
20140;SDS011;10231;47.702;9.826;2023-04-24T03:47:01;0.30;;;0.30;;
20140;SDS011;10231;47.702;9.826;2023-04-24T03:49:27;0.30;;;0.30;;
20140;SDS011;10231;47.702;9.826;2023-04-24T03:51:53;0.30;;;0.30;;
20140;SDS011;10231;47.702;9.826;2023-04-24T03:54:19;0.20;;;0.20;;
20140;SDS011;10231;47.702;9.826;2023-04-24T03:56:45;0.30;;;0.30;;
20140;SDS011;10231;47.702;9.826;2023-04-24T03:59:11;0.50;;;0.37;;
20140;SDS011;10231;47.702;9.826;2023-04-24T04:01:36;0.40;;;0.30;;
20140;SDS011;10231;47.702;9.826;2023-04-24T04:04:02;0.40;;;0.30;;
20140;SDS011;10231;47.702;9.826;2023-04-24T04:06:31;0.20;;;0.20;;
20140;SDS011;10231;47.702;9.826;2023-04-24T04:08:57;0.20;;;0.20;;
20140;SDS011;10231;47.702;9.826;2023-04-24T04:11:24;0.20;;;0.20;;
20140;SDS011;10231;47.702;9.826;2023-04-24T04:13:50;0.40;;;0.20;;
20140;SDS011;10231;47.702;9.826;2023-04-24T04:16:16;0.87;;;0.37;;
20140;SDS011;10231;47.702;9.826;2023-04-24T04:18:42;0.40;;;0.40;;
20140;SDS011;10231;47.702;9.826;2023-04-24T04:21:08;2.53;;;0.40;;
20140;SDS011;10231;47.702;9.826;2023-04-24T04:23:33;0.40;;;0.40;;
20140;SDS011;10231;47.702;9.826;2023-04-24T04:25:59;0.30;;;0.30;;
20140;SDS011;10231;47.702;9.826;2023-04-24T04:28:26;0.20;;;0.20;;
20140;SDS011;10231;47.702;9.826;2023-04-24T04:30:51;0.37;;;0.37;;
20140;SDS011;10231;47.702;9.826;2023-04-24T04:33:20;0.50;;;0.40;;
20140;SDS011;10231;47.702;9.826;2023-04-24T04:35:46;0.33;;;0.30;;
20140;SDS011;10231;47.702;9.826;2023-04-24T04:38:17;0.30;;;0.30;;
20140;SDS011;10231;47.702;9.826;2023-04-24T04:40:43;0.20;;;0.20;;
20140;SDS011;10231;47.702;9.826;2023-04-24T04:43:09;0.30;;;0.30;;
20140;SDS011;10231;47.702;9.826;2023-04-24T04:45:36;0.50;;;0.40;;
20140;SDS011;10231;47.702;9.826;2023-04-24T04:48:03;0.30;;;0.30;;
20140;SDS011;10231;47.702;9.826;2023-04-24T04:50:30;0.30;;;0.30;;
20140;SDS011;10231;47.702;9.826;2023-04-24T04:52:56;1.17;;;0.33;;
20140;SDS011;10231;47.702;9.826;2023-04-24T04:55:22;0.60;;;0.40;;
20140;SDS011;10231;47.702;9.826;2023-04-24T04:57:47;0.83;;;0.40;;
20140;SDS011;10231;47.702;9.826;2023-04-24T05:00:13;0.80;;;0.40;;
20140;SDS011;10231;47.702;9.826;2023-04-24T05:02:39;0.30;;;0.30;;
20140;SDS011;10231;47.702;9.826;2023-04-24T05:05:05;0.43;;;0.37;;
20140;SDS011;10231;47.702;9.826;2023-04-24T05:07:32;0.50;;;0.30;;
20140;SDS011;10231;47.702;9.826;2023-04-24T05:09:57;0.60;;;0.30;;
20140;SDS011;10231;47.702;9.826;2023-04-24T05:12:23;0.60;;;0.43;;
20140;SDS011;10231;47.702;9.826;2023-04-24T05:14:48;0.73;;;0.40;;
20140;SDS011;10231;47.702;9.826;2023-04-24T05:17:14;0.77;;;0.30;;
20140;SDS011;10231;47.702;9.826;2023-04-24T05:19:40;1.00;;;0.30;;
20140;SDS011;10231;47.702;9.826;2023-04-24T05:22:06;0.47;;;0.47;;
20140;SDS011;10231;47.702;9.826;2023-04-24T05:24:35;1.27;;;0.50;;
20140;SDS011;10231;47.702;9.826;2023-04-24T05:27:01;0.40;;;0.40;;
20140;SDS011;10231;47.702;9.826;2023-04-24T05:29:28;0.40;;;0.40;;
20140;SDS011;10231;47.702;9.826;2023-04-24T05:31:55;0.43;;;0.40;;
20140;SDS011;10231;47.702;9.826;2023-04-24T05:34:21;0.40;;;0.40;;
20140;SDS011;10231;47.702;9.826;2023-04-24T05:36:47;0.47;;;0.30;;
20140;SDS011;10231;47.702;9.826;2023-04-24T05:39:13;0.33;;;0.33;;
20140;SDS011;10231;47.702;9.826;2023-04-24T05:41:40;0.33;;;0.30;;
20140;SDS011;10231;47.702;9.826;2023-04-24T05:44:05;0.57;;;0.40;;
20140;SDS011;10231;47.702;9.826;2023-04-24T05:46:31;0.40;;;0.40;;
20140;SDS011;10231;47.702;9.826;2023-04-24T05:48:56;0.40;;;0.40;;
20140;SDS011;10231;47.702;9.826;2023-04-24T05:51:22;1.43;;;0.40;;
20140;SDS011;10231;47.702;9.826;2023-04-24T05:53:48;0.40;;;0.40;;
20140;SDS011;10231;47.702;9.826;2023-04-24T05:56:14;0.20;;;0.20;;
20140;SDS011;10231;47.702;9.826;2023-04-24T05:58:40;0.37;;;0.37;;
20140;SDS011;10231;47.702;9.826;2023-04-24T06:01:06;0.57;;;0.50;;
20140;SDS011;10231;47.702;9.826;2023-04-24T06:03:31;0.30;;;0.30;;
20140;SDS011;10231;47.702;9.826;2023-04-24T06:05:57;0.60;;;0.40;;
20140;SDS011;10231;47.702;9.826;2023-04-24T06:08:23;0.50;;;0.50;;
20140;SDS011;10231;47.702;9.826;2023-04-24T06:10:49;0.40;;;0.40;;
20140;SDS011;10231;47.702;9.826;2023-04-24T06:13:14;1.70;;;0.40;;
20140;SDS011;10231;47.702;9.826;2023-04-24T06:15:40;0.47;;;0.40;;
20140;SDS011;10231;47.702;9.826;2023-04-24T06:18:06;0.40;;;0.40;;
20140;SDS011;10231;47.702;9.826;2023-04-24T06:20:32;0.47;;;0.40;;
20140;SDS011;10231;47.702;9.826;2023-04-24T06:22:58;0.57;;;0.33;;
20140;SDS011;10231;47.702;9.826;2023-04-24T06:25:26;0.30;;;0.30;;
20140;SDS011;10231;47.702;9.826;2023-04-24T06:27:52;0.30;;;0.20;;
20140;SDS011;10231;47.702;9.826;2023-04-24T06:30:17;0.50;;;0.50;;
20140;SDS011;10231;47.702;9.826;2023-04-24T06:32:43;0.53;;;0.33;;
20140;SDS011;10231;47.702;9.826;2023-04-24T06:35:08;1.77;;;1.60;;
20140;SDS011;10231;47.702;9.826;2023-04-24T06:37:34;0.60;;;0.50;;
20140;SDS011;10231;47.702;9.826;2023-04-24T06:40:00;1.23;;;0.50;;
20140;SDS011;10231;47.702;9.826;2023-04-24T06:42:26;0.60;;;0.50;;
20140;SDS011;10231;47.702;9.826;2023-04-24T06:44:52;0.40;;;0.40;;
20140;SDS011;10231;47.702;9.826;2023-04-24T06:47:17;3.60;;;0.60;;
20140;SDS011;10231;47.702;9.826;2023-04-24T06:49:43;1.70;;;0.50;;
20140;SDS011;10231;47.702;9.826;2023-04-24T06:52:09;3.43;;;0.47;;
20140;SDS011;10231;47.702;9.826;2023-04-24T06:54:34;1.80;;;0.67;;
20140;SDS011;10231;47.702;9.826;2023-04-24T06:57:00;4.93;;;1.57;;
20140;SDS011;10231;47.702;9.826;2023-04-24T06:59:27;4.60;;;0.90;;
20140;SDS011;10231;47.702;9.826;2023-04-24T07:01:53;1.53;;;0.50;;
20140;SDS011;10231;47.702;9.826;2023-04-24T07:04:19;2.00;;;0.53;;
20140;SDS011;10231;47.702;9.826;2023-04-24T07:06:45;0.40;;;0.40;;
20140;SDS011;10231;47.702;9.826;2023-04-24T07:09:12;0.40;;;0.40;;
20140;SDS011;10231;47.702;9.826;2023-04-24T07:11:39;0.30;;;0.30;;
20140;SDS011;10231;47.702;9.826;2023-04-24T07:14:08;0.50;;;0.50;;
20140;SDS011;10231;47.702;9.826;2023-04-24T07:16:34;2.73;;;0.57;;
20140;SDS011;10231;47.702;9.826;2023-04-24T07:19:00;0.83;;;0.83;;
20140;SDS011;10231;47.702;9.826;2023-04-24T07:21:26;0.63;;;0.63;;
20140;SDS011;10231;47.702;9.826;2023-04-24T07:23:52;1.00;;;0.50;;
20140;SDS011;10231;47.702;9.826;2023-04-24T07:26:17;0.70;;;0.70;;
20140;SDS011;10231;47.702;9.826;2023-04-24T07:28:43;1.83;;;0.70;;
20140;SDS011;10231;47.702;9.826;2023-04-24T07:31:09;5.00;;;1.00;;
20140;SDS011;10231;47.702;9.826;2023-04-24T07:33:36;1.13;;;1.00;;
20140;SDS011;10231;47.702;9.826;2023-04-24T07:36:01;0.60;;;0.60;;
20140;SDS011;10231;47.702;9.826;2023-04-24T07:38:29;0.97;;;0.97;;
20140;SDS011;10231;47.702;9.826;2023-04-24T07:40:54;0.83;;;0.83;;
20140;SDS011;10231;47.702;9.826;2023-04-24T07:43:20;0.87;;;0.70;;
20140;SDS011;10231;47.702;9.826;2023-04-24T07:45:46;2.23;;;1.20;;
20140;SDS011;10231;47.702;9.826;2023-04-24T07:48:12;0.87;;;0.87;;
20140;SDS011;10231;47.702;9.826;2023-04-24T07:50:41;1.10;;;1.10;;
20140;SDS011;10231;47.702;9.826;2023-04-24T07:53:07;1.37;;;1.27;;
20140;SDS011;10231;47.702;9.826;2023-04-24T07:55:32;1.57;;;0.77;;
20140;SDS011;10231;47.702;9.826;2023-04-24T07:57:58;1.43;;;1.10;;
20140;SDS011;10231;47.702;9.826;2023-04-24T08:00:23;0.97;;;0.97;;
20140;SDS011;10231;47.702;9.826;2023-04-24T08:02:49;2.20;;;1.20;;
20140;SDS011;10231;47.702;9.826;2023-04-24T08:05:15;3.30;;;1.40;;
20140;SDS011;10231;47.702;9.826;2023-04-24T08:07:40;1.43;;;1.43;;
20140;SDS011;10231;47.702;9.826;2023-04-24T08:10:07;1.40;;;1.30;;
20140;SDS011;10231;47.702;9.826;2023-04-24T08:12:35;1.77;;;1.67;;
20140;SDS011;10231;47.702;9.826;2023-04-24T08:15:01;1.57;;;1.47;;
20140;SDS011;10231;47.702;9.826;2023-04-24T08:17:27;1.70;;;1.60;;
20140;SDS011;10231;47.702;9.826;2023-04-24T08:19:53;2.63;;;1.80;;
20140;SDS011;10231;47.702;9.826;2023-04-24T08:22:26;2.00;;;1.90;;
20140;SDS011;10231;47.702;9.826;2023-04-24T08:24:52;3.20;;;1.90;;
20140;SDS011;10231;47.702;9.826;2023-04-24T08:27:17;2.90;;;1.93;;
20140;SDS011;10231;47.702;9.826;2023-04-24T08:29:43;2.00;;;1.90;;
20140;SDS011;10231;47.702;9.826;2023-04-24T08:32:09;2.70;;;1.87;;
20140;SDS011;10231;47.702;9.826;2023-04-24T08:34:34;1.90;;;1.80;;
20140;SDS011;10231;47.702;9.826;2023-04-24T08:37:00;2.10;;;1.87;;
20140;SDS011;10231;47.702;9.826;2023-04-24T08:39:25;2.27;;;2.07;;
20140;SDS011;10231;47.702;9.826;2023-04-24T08:41:51;1.70;;;1.60;;
20140;SDS011;10231;47.702;9.826;2023-04-24T08:44:17;1.80;;;1.70;;
20140;SDS011;10231;47.702;9.826;2023-04-24T08:46:44;2.83;;;1.97;;
20140;SDS011;10231;47.702;9.826;2023-04-24T08:49:13;1.60;;;1.50;;
20140;SDS011;10231;47.702;9.826;2023-04-24T08:51:41;2.03;;;1.70;;
20140;SDS011;10231;47.702;9.826;2023-04-24T08:54:06;2.27;;;1.60;;
20140;SDS011;10231;47.702;9.826;2023-04-24T08:56:33;2.10;;;1.80;;
20140;SDS011;10231;47.702;9.826;2023-04-24T08:58:59;1.87;;;1.77;;
20140;SDS011;10231;47.702;9.826;2023-04-24T09:01:24;1.80;;;1.70;;
20140;SDS011;10231;47.702;9.826;2023-04-24T09:03:51;1.37;;;1.30;;
20140;SDS011;10231;47.702;9.826;2023-04-24T09:06:18;1.60;;;1.50;;
20140;SDS011;10231;47.702;9.826;2023-04-24T09:08:46;1.87;;;1.77;;
20140;SDS011;10231;47.702;9.826;2023-04-24T09:11:12;1.40;;;1.30;;
20140;SDS011;10231;47.702;9.826;2023-04-24T09:13:38;1.57;;;1.23;;
20140;SDS011;10231;47.702;9.826;2023-04-24T09:16:04;1.90;;;1.67;;
20140;SDS011;10231;47.702;9.826;2023-04-24T09:18:29;3.07;;;1.63;;
20140;SDS011;10231;47.702;9.826;2023-04-24T09:20:59;1.50;;;1.40;;
20140;SDS011;10231;47.702;9.826;2023-04-24T09:23:29;0.93;;;0.93;;
20140;SDS011;10231;47.702;9.826;2023-04-24T09:25:56;1.30;;;1.00;;
20140;SDS011;10231;47.702;9.826;2023-04-24T09:28:27;1.23;;;1.23;;
20140;SDS011;10231;47.702;9.826;2023-04-24T09:31:03;3.70;;;1.57;;
20140;SDS011;10231;47.702;9.826;2023-04-24T09:33:30;1.37;;;1.10;;
20140;SDS011;10231;47.702;9.826;2023-04-24T09:35:56;1.67;;;1.40;;
20140;SDS011;10231;47.702;9.826;2023-04-24T09:38:30;1.77;;;0.90;;
20140;SDS011;10231;47.702;9.826;2023-04-24T09:41:03;2.57;;;1.07;;
20140;SDS011;10231;47.702;9.826;2023-04-24T09:43:31;1.00;;;1.00;;
20140;SDS011;10231;47.702;9.826;2023-04-24T09:45:57;1.33;;;1.10;;
20140;SDS011;10231;47.702;9.826;2023-04-24T09:48:33;1.10;;;1.10;;
20140;SDS011;10231;47.702;9.826;2023-04-24T09:51:01;1.20;;;1.00;;
20140;SDS011;10231;47.702;9.826;2023-04-24T09:53:28;1.63;;;1.33;;
20140;SDS011;10231;47.702;9.826;2023-04-24T09:55:55;1.00;;;1.00;;
20140;SDS011;10231;47.702;9.826;2023-04-24T09:58:28;2.03;;;1.50;;
20140;SDS011;10231;47.702;9.826;2023-04-24T10:00:54;1.50;;;1.30;;
20140;SDS011;10231;47.702;9.826;2023-04-24T10:03:20;1.83;;;1.60;;
20140;SDS011;10231;47.702;9.826;2023-04-24T10:05:48;3.00;;;1.70;;
20140;SDS011;10231;47.702;9.826;2023-04-24T10:08:16;2.83;;;1.53;;
20140;SDS011;10231;47.702;9.826;2023-04-24T10:10:42;1.60;;;1.50;;
20140;SDS011;10231;47.702;9.826;2023-04-24T10:13:09;2.90;;;1.40;;
20140;SDS011;10231;47.702;9.826;2023-04-24T10:15:36;4.37;;;2.20;;
20140;SDS011;10231;47.702;9.826;2023-04-24T10:18:02;2.33;;;1.90;;
20140;SDS011;10231;47.702;9.826;2023-04-24T10:20:31;2.70;;;1.70;;
20140;SDS011;10231;47.702;9.826;2023-04-24T10:22:58;2.40;;;2.20;;
20140;SDS011;10231;47.702;9.826;2023-04-24T10:25:28;5.80;;;2.00;;
20140;SDS011;10231;47.702;9.826;2023-04-24T10:27:57;2.40;;;2.03;;
20140;SDS011;10231;47.702;9.826;2023-04-24T10:30:25;3.23;;;2.47;;
20140;SDS011;10231;47.702;9.826;2023-04-24T10:33:04;2.23;;;1.80;;
20140;SDS011;10231;47.702;9.826;2023-04-24T10:35:33;3.17;;;1.87;;
20140;SDS011;10231;47.702;9.826;2023-04-24T10:38:06;1.83;;;1.37;;
20140;SDS011;10231;47.702;9.826;2023-04-24T10:40:35;2.00;;;1.13;;
20140;SDS011;10231;47.702;9.826;2023-04-24T10:43:02;2.40;;;1.37;;
20140;SDS011;10231;47.702;9.826;2023-04-24T10:45:31;2.57;;;1.87;;
20140;SDS011;10231;47.702;9.826;2023-04-24T10:47:57;1.70;;;1.40;;
20140;SDS011;10231;47.702;9.826;2023-04-24T10:50:26;2.63;;;1.67;;
20140;SDS011;10231;47.702;9.826;2023-04-24T10:52:52;3.37;;;1.60;;
20140;SDS011;10231;47.702;9.826;2023-04-24T10:55:39;1.97;;;1.70;;
20140;SDS011;10231;47.702;9.826;2023-04-24T10:58:06;1.53;;;1.40;;
20140;SDS011;10231;47.702;9.826;2023-04-24T11:00:31;3.90;;;1.63;;
20140;SDS011;10231;47.702;9.826;2023-04-24T11:02:57;2.13;;;1.67;;
20140;SDS011;10231;47.702;9.826;2023-04-24T11:05:49;1.60;;;1.50;;
20140;SDS011;10231;47.702;9.826;2023-04-24T11:08:16;1.50;;;1.40;;
20140;SDS011;10231;47.702;9.826;2023-04-24T11:10:54;2.20;;;1.40;;
20140;SDS011;10231;47.702;9.826;2023-04-24T11:13:22;2.17;;;1.50;;
20140;SDS011;10231;47.702;9.826;2023-04-24T11:18:38;2.27;;;1.17;;
20140;SDS011;10231;47.702;9.826;2023-04-24T11:21:16;1.43;;;1.33;;
20140;SDS011;10231;47.702;9.826;2023-04-24T11:23:42;1.77;;;1.10;;
20140;SDS011;10231;47.702;9.826;2023-04-24T11:26:23;1.53;;;1.40;;
20140;SDS011;10231;47.702;9.826;2023-04-24T11:28:55;1.23;;;1.13;;
20140;SDS011;10231;47.702;9.826;2023-04-24T11:31:35;2.23;;;1.30;;
20140;SDS011;10231;47.702;9.826;2023-04-24T11:34:14;1.63;;;1.53;;
20140;SDS011;10231;47.702;9.826;2023-04-24T11:36:45;2.93;;;1.67;;
20140;SDS011;10231;47.702;9.826;2023-04-24T11:39:12;2.27;;;1.53;;
20140;SDS011;10231;47.702;9.826;2023-04-24T11:41:38;1.40;;;1.27;;
20140;SDS011;10231;47.702;9.826;2023-04-24T11:44:06;2.00;;;1.50;;
20140;SDS011;10231;47.702;9.826;2023-04-24T11:46:33;3.20;;;1.30;;
20140;SDS011;10231;47.702;9.826;2023-04-24T11:48:59;1.93;;;1.57;;
20140;SDS011;10231;47.702;9.826;2023-04-24T11:51:28;2.13;;;1.70;;
20140;SDS011;10231;47.702;9.826;2023-04-24T11:53:54;1.37;;;1.27;;
20140;SDS011;10231;47.702;9.826;2023-04-24T11:56:21;2.13;;;1.10;;
20140;SDS011;10231;47.702;9.826;2023-04-24T11:58:48;2.40;;;1.30;;
20140;SDS011;10231;47.702;9.826;2023-04-24T12:01:13;1.50;;;1.50;;
20140;SDS011;10231;47.702;9.826;2023-04-24T12:03:40;2.50;;;1.20;;
20140;SDS011;10231;47.702;9.826;2023-04-24T12:06:10;1.97;;;1.30;;
20140;SDS011;10231;47.702;9.826;2023-04-24T12:08:37;3.27;;;1.13;;
20140;SDS011;10231;47.702;9.826;2023-04-24T12:11:04;1.00;;;1.00;;
20140;SDS011;10231;47.702;9.826;2023-04-24T12:13:34;4.03;;;1.90;;
20140;SDS011;10231;47.702;9.826;2023-04-24T12:16:03;1.73;;;1.17;;
20140;SDS011;10231;47.702;9.826;2023-04-24T12:18:30;2.23;;;1.33;;
20140;SDS011;10231;47.702;9.826;2023-04-24T12:21:14;1.30;;;1.20;;
20140;SDS011;10231;47.702;9.826;2023-04-24T12:23:46;1.90;;;1.40;;
20140;SDS011;10231;47.702;9.826;2023-04-24T12:26:17;3.13;;;1.73;;
20140;SDS011;10231;47.702;9.826;2023-04-24T12:28:45;3.33;;;1.50;;
20140;SDS011;10231;47.702;9.826;2023-04-24T12:31:12;1.23;;;1.17;;
20140;SDS011;10231;47.702;9.826;2023-04-24T12:33:37;1.53;;;1.33;;
20140;SDS011;10231;47.702;9.826;2023-04-24T12:36:03;1.50;;;1.20;;
20140;SDS011;10231;47.702;9.826;2023-04-24T12:38:30;1.80;;;1.13;;
20140;SDS011;10231;47.702;9.826;2023-04-24T12:41:11;0.93;;;0.80;;
20140;SDS011;10231;47.702;9.826;2023-04-24T12:43:38;1.03;;;0.97;;
20140;SDS011;10231;47.702;9.826;2023-04-24T12:46:16;1.03;;;0.93;;
20140;SDS011;10231;47.702;9.826;2023-04-24T12:48:41;1.90;;;1.00;;
20140;SDS011;10231;47.702;9.826;2023-04-24T12:51:07;2.10;;;1.07;;
20140;SDS011;10231;47.702;9.826;2023-04-24T12:53:32;2.10;;;1.40;;
20140;SDS011;10231;47.702;9.826;2023-04-24T12:55:58;2.90;;;1.20;;
20140;SDS011;10231;47.702;9.826;2023-04-24T12:58:24;3.10;;;1.00;;
20140;SDS011;10231;47.702;9.826;2023-04-24T13:00:49;1.80;;;1.33;;
20140;SDS011;10231;47.702;9.826;2023-04-24T13:03:15;2.03;;;0.90;;
20140;SDS011;10231;47.702;9.826;2023-04-24T13:05:42;1.37;;;1.23;;
20140;SDS011;10231;47.702;9.826;2023-04-24T13:08:08;1.17;;;0.87;;
20140;SDS011;10231;47.702;9.826;2023-04-24T13:10:34;3.50;;;1.30;;
20140;SDS011;10231;47.702;9.826;2023-04-24T13:13:00;1.23;;;0.97;;
20140;SDS011;10231;47.702;9.826;2023-04-24T13:15:26;0.80;;;0.80;;
20140;SDS011;10231;47.702;9.826;2023-04-24T13:17:51;1.40;;;1.10;;
20140;SDS011;10231;47.702;9.826;2023-04-24T13:20:17;1.23;;;0.83;;
20140;SDS011;10231;47.702;9.826;2023-04-24T13:22:43;1.13;;;0.90;;
20140;SDS011;10231;47.702;9.826;2023-04-24T13:25:08;2.00;;;1.00;;
20140;SDS011;10231;47.702;9.826;2023-04-24T13:27:35;0.70;;;0.70;;
20140;SDS011;10231;47.702;9.826;2023-04-24T13:30:00;2.27;;;1.00;;
20140;SDS011;10231;47.702;9.826;2023-04-24T13:32:26;1.20;;;1.10;;
20140;SDS011;10231;47.702;9.826;2023-04-24T13:34:52;3.43;;;1.20;;
20140;SDS011;10231;47.702;9.826;2023-04-24T13:37:18;2.33;;;0.90;;
20140;SDS011;10231;47.702;9.826;2023-04-24T13:39:43;1.53;;;0.80;;
20140;SDS011;10231;47.702;9.826;2023-04-24T13:42:09;2.17;;;1.10;;
20140;SDS011;10231;47.702;9.826;2023-04-24T13:44:35;0.80;;;0.80;;
20140;SDS011;10231;47.702;9.826;2023-04-24T13:47:02;1.20;;;0.70;;
20140;SDS011;10231;47.702;9.826;2023-04-24T13:49:28;1.83;;;0.87;;
20140;SDS011;10231;47.702;9.826;2023-04-24T13:51:54;0.80;;;0.80;;
20140;SDS011;10231;47.702;9.826;2023-04-24T13:54:20;0.97;;;0.80;;
20140;SDS011;10231;47.702;9.826;2023-04-24T13:56:48;1.23;;;0.90;;
20140;SDS011;10231;47.702;9.826;2023-04-24T13:59:14;1.07;;;0.97;;
20140;SDS011;10231;47.702;9.826;2023-04-24T14:01:39;1.20;;;1.07;;
20140;SDS011;10231;47.702;9.826;2023-04-24T14:04:05;1.43;;;0.83;;
20140;SDS011;10231;47.702;9.826;2023-04-24T14:06:30;0.90;;;0.90;;
20140;SDS011;10231;47.702;9.826;2023-04-24T14:08:56;1.40;;;0.80;;
20140;SDS011;10231;47.702;9.826;2023-04-24T14:11:22;0.90;;;0.90;;
20140;SDS011;10231;47.702;9.826;2023-04-24T14:13:47;1.33;;;1.13;;
20140;SDS011;10231;47.702;9.826;2023-04-24T14:16:13;0.90;;;0.90;;
20140;SDS011;10231;47.702;9.826;2023-04-24T14:18:39;0.70;;;0.70;;
20140;SDS011;10231;47.702;9.826;2023-04-24T14:21:05;2.17;;;0.80;;
20140;SDS011;10231;47.702;9.826;2023-04-24T14:23:31;0.70;;;0.70;;
20140;SDS011;10231;47.702;9.826;2023-04-24T14:25:57;1.60;;;1.00;;
20140;SDS011;10231;47.702;9.826;2023-04-24T14:28:23;1.73;;;0.83;;
20140;SDS011;10231;47.702;9.826;2023-04-24T14:30:49;2.20;;;1.10;;
20140;SDS011;10231;47.702;9.826;2023-04-24T14:33:15;1.57;;;0.80;;
20140;SDS011;10231;47.702;9.826;2023-04-24T14:35:41;0.93;;;0.90;;
20140;SDS011;10231;47.702;9.826;2023-04-24T14:38:10;1.40;;;0.67;;
20140;SDS011;10231;47.702;9.826;2023-04-24T14:40:36;1.27;;;1.00;;
20140;SDS011;10231;47.702;9.826;2023-04-24T14:43:02;1.10;;;1.00;;
20140;SDS011;10231;47.702;9.826;2023-04-24T14:45:27;1.43;;;0.70;;
20140;SDS011;10231;47.702;9.826;2023-04-24T14:47:53;2.00;;;0.80;;